sensor_id;sensor_type;location;lat;lon;timestamp;temperature;humidity
13326;DHT22;6732;51.044;3.746;2022-10-26T00:00:48;14.90;99.90
13326;DHT22;6732;51.044;3.746;2022-10-26T00:03:14;14.90;99.90
13326;DHT22;6732;51.044;3.746;2022-10-26T00:05:40;14.90;99.90
13326;DHT22;6732;51.044;3.746;2022-10-26T00:08:07;14.90;99.90
13326;DHT22;6732;51.044;3.746;2022-10-26T00:10:37;14.90;99.90
13326;DHT22;6732;51.044;3.746;2022-10-26T00:13:06;14.90;99.90
13326;DHT22;6732;51.044;3.746;2022-10-26T00:15:33;14.90;99.90
13326;DHT22;6732;51.044;3.746;2022-10-26T00:17:59;14.90;99.90
13326;DHT22;6732;51.044;3.746;2022-10-26T00:20:25;14.90;99.90
13326;DHT22;6732;51.044;3.746;2022-10-26T00:22:51;14.90;99.90
13326;DHT22;6732;51.044;3.746;2022-10-26T00:25:17;14.90;99.90
13326;DHT22;6732;51.044;3.746;2022-10-26T00:27:43;14.90;99.90
13326;DHT22;6732;51.044;3.746;2022-10-26T00:30:09;14.80;99.90
13326;DHT22;6732;51.044;3.746;2022-10-26T00:32:35;14.80;99.90
13326;DHT22;6732;51.044;3.746;2022-10-26T00:35:01;14.80;99.90
13326;DHT22;6732;51.044;3.746;2022-10-26T00:37:27;14.80;99.90
13326;DHT22;6732;51.044;3.746;2022-10-26T00:39:53;14.80;99.90
13326;DHT22;6732;51.044;3.746;2022-10-26T00:42:20;14.80;99.90
13326;DHT22;6732;51.044;3.746;2022-10-26T00:47:22;14.80;99.90
13326;DHT22;6732;51.044;3.746;2022-10-26T00:49:51;14.80;99.90
13326;DHT22;6732;51.044;3.746;2022-10-26T00:52:19;14.80;99.90
13326;DHT22;6732;51.044;3.746;2022-10-26T00:54:46;14.80;99.90
13326;DHT22;6732;51.044;3.746;2022-10-26T00:57:14;14.80;99.90
13326;DHT22;6732;51.044;3.746;2022-10-26T00:59:41;14.80;99.90
13326;DHT22;6732;51.044;3.746;2022-10-26T01:02:08;14.80;99.90
13326;DHT22;6732;51.044;3.746;2022-10-26T01:04:34;14.80;99.90
13326;DHT22;6732;51.044;3.746;2022-10-26T01:07:00;14.80;99.90
13326;DHT22;6732;51.044;3.746;2022-10-26T01:09:28;14.80;99.90
13326;DHT22;6732;51.044;3.746;2022-10-26T01:11:54;14.80;99.90
13326;DHT22;6732;51.044;3.746;2022-10-26T01:14:20;14.70;99.90
13326;DHT22;6732;51.044;3.746;2022-10-26T01:23:07;14.70;99.90
13326;DHT22;6732;51.044;3.746;2022-10-26T01:25:52;14.70;99.90
13326;DHT22;6732;51.044;3.746;2022-10-26T01:31:08;14.70;99.90
13326;DHT22;6732;51.044;3.746;2022-10-26T01:33:43;14.70;99.90
13326;DHT22;6732;51.044;3.746;2022-10-26T01:37:06;14.70;99.90
13326;DHT22;6732;51.044;3.746;2022-10-26T01:39:35;14.70;99.90
13326;DHT22;6732;51.044;3.746;2022-10-26T01:42:04;14.70;99.90
13326;DHT22;6732;51.044;3.746;2022-10-26T01:45:00;14.70;99.90
13326;DHT22;6732;51.044;3.746;2022-10-26T01:47:29;14.70;99.90
13326;DHT22;6732;51.044;3.746;2022-10-26T01:49:57;14.70;99.90
13326;DHT22;6732;51.044;3.746;2022-10-26T01:52:24;14.70;99.90
13326;DHT22;6732;51.044;3.746;2022-10-26T01:54:50;14.70;99.90
13326;DHT22;6732;51.044;3.746;2022-10-26T01:57:19;14.70;99.90
13326;DHT22;6732;51.044;3.746;2022-10-26T02:00:01;14.70;99.90
13326;DHT22;6732;51.044;3.746;2022-10-26T02:02:59;14.70;99.90
13326;DHT22;6732;51.044;3.746;2022-10-26T02:08:30;14.70;99.90
13326;DHT22;6732;51.044;3.746;2022-10-26T02:11:23;14.70;99.90
13326;DHT22;6732;51.044;3.746;2022-10-26T02:16:51;14.70;99.90
13326;DHT22;6732;51.044;3.746;2022-10-26T02:22:01;14.70;99.90
13326;DHT22;6732;51.044;3.746;2022-10-26T02:24:30;14.70;99.90
13326;DHT22;6732;51.044;3.746;2022-10-26T02:26:59;14.70;99.90
13326;DHT22;6732;51.044;3.746;2022-10-26T02:29:27;14.70;99.90
13326;DHT22;6732;51.044;3.746;2022-10-26T02:31:54;14.70;99.90
13326;DHT22;6732;51.044;3.746;2022-10-26T02:34:24;14.70;99.90
13326;DHT22;6732;51.044;3.746;2022-10-26T02:36:54;14.70;99.90
13326;DHT22;6732;51.044;3.746;2022-10-26T02:39:22;14.70;99.90
13326;DHT22;6732;51.044;3.746;2022-10-26T02:45:45;14.60;99.90
13326;DHT22;6732;51.044;3.746;2022-10-26T02:48:13;14.60;99.90
13326;DHT22;6732;51.044;3.746;2022-10-26T02:53:31;14.70;99.90
13326;DHT22;6732;51.044;3.746;2022-10-26T02:56:04;14.60;99.90
13326;DHT22;6732;51.044;3.746;2022-10-26T02:58:37;14.60;99.90
13326;DHT22;6732;51.044;3.746;2022-10-26T03:01:04;14.60;99.90
13326;DHT22;6732;51.044;3.746;2022-10-26T03:03:31;14.60;99.90
13326;DHT22;6732;51.044;3.746;2022-10-26T03:05:56;14.60;99.90
13326;DHT22;6732;51.044;3.746;2022-10-26T03:08:23;14.60;99.90
13326;DHT22;6732;51.044;3.746;2022-10-26T03:10:49;14.60;99.90
13326;DHT22;6732;51.044;3.746;2022-10-26T03:13:14;14.70;99.90
13326;DHT22;6732;51.044;3.746;2022-10-26T03:15:40;14.70;99.90
13326;DHT22;6732;51.044;3.746;2022-10-26T03:18:06;14.70;99.90
13326;DHT22;6732;51.044;3.746;2022-10-26T03:20:33;14.60;99.90
13326;DHT22;6732;51.044;3.746;2022-10-26T03:22:59;14.60;99.90
13326;DHT22;6732;51.044;3.746;2022-10-26T03:25:25;14.70;99.90
13326;DHT22;6732;51.044;3.746;2022-10-26T03:28:02;14.70;99.90
13326;DHT22;6732;51.044;3.746;2022-10-26T03:30:29;14.70;99.90
13326;DHT22;6732;51.044;3.746;2022-10-26T03:32:56;14.70;99.90
13326;DHT22;6732;51.044;3.746;2022-10-26T03:35:23;14.70;99.90
13326;DHT22;6732;51.044;3.746;2022-10-26T03:37:49;14.70;99.90
13326;DHT22;6732;51.044;3.746;2022-10-26T03:44:04;14.70;99.90
13326;DHT22;6732;51.044;3.746;2022-10-26T03:46:30;14.70;99.90
13326;DHT22;6732;51.044;3.746;2022-10-26T03:48:56;14.70;99.90
13326;DHT22;6732;51.044;3.746;2022-10-26T03:54:44;14.70;99.90
13326;DHT22;6732;51.044;3.746;2022-10-26T03:57:18;14.60;99.90
13326;DHT22;6732;51.044;3.746;2022-10-26T04:04:11;14.60;99.90
13326;DHT22;6732;51.044;3.746;2022-10-26T04:06:43;14.60;99.90
13326;DHT22;6732;51.044;3.746;2022-10-26T04:15:51;14.60;99.90
13326;DHT22;6732;51.044;3.746;2022-10-26T04:18:37;14.60;99.90
13326;DHT22;6732;51.044;3.746;2022-10-26T04:24:31;14.60;99.90
13326;DHT22;6732;51.044;3.746;2022-10-26T04:37:43;14.60;99.90
13326;DHT22;6732;51.044;3.746;2022-10-26T04:40:57;14.60;99.90
13326;DHT22;6732;51.044;3.746;2022-10-26T04:44:02;14.60;99.90
13326;DHT22;6732;51.044;3.746;2022-10-26T04:46:28;14.60;99.90
13326;DHT22;6732;51.044;3.746;2022-10-26T04:52:04;14.60;99.90
13326;DHT22;6732;51.044;3.746;2022-10-26T04:54:36;14.60;99.90
13326;DHT22;6732;51.044;3.746;2022-10-26T04:57:02;14.60;99.90
13326;DHT22;6732;51.044;3.746;2022-10-26T04:59:46;14.60;99.90
13326;DHT22;6732;51.044;3.746;2022-10-26T05:02:31;14.60;99.90
13326;DHT22;6732;51.044;3.746;2022-10-26T05:05:12;14.60;99.90
13326;DHT22;6732;51.044;3.746;2022-10-26T05:07:38;14.60;99.90
13326;DHT22;6732;51.044;3.746;2022-10-26T05:10:05;14.60;99.90
13326;DHT22;6732;51.044;3.746;2022-10-26T05:12:31;14.70;99.90
13326;DHT22;6732;51.044;3.746;2022-10-26T05:14:57;14.70;99.90
13326;DHT22;6732;51.044;3.746;2022-10-26T05:17:25;14.70;99.90
13326;DHT22;6732;51.044;3.746;2022-10-26T05:19:51;14.70;99.90
13326;DHT22;6732;51.044;3.746;2022-10-26T05:22:24;14.70;99.90
13326;DHT22;6732;51.044;3.746;2022-10-26T05:24:50;14.70;99.90
13326;DHT22;6732;51.044;3.746;2022-10-26T05:27:17;14.70;99.90
13326;DHT22;6732;51.044;3.746;2022-10-26T05:29:43;14.70;99.90
13326;DHT22;6732;51.044;3.746;2022-10-26T05:32:09;14.70;99.90
13326;DHT22;6732;51.044;3.746;2022-10-26T05:34:35;14.70;99.90
13326;DHT22;6732;51.044;3.746;2022-10-26T05:37:01;14.80;99.90
13326;DHT22;6732;51.044;3.746;2022-10-26T05:39:27;14.80;99.90
13326;DHT22;6732;51.044;3.746;2022-10-26T05:41:53;14.80;99.90
13326;DHT22;6732;51.044;3.746;2022-10-26T05:44:18;14.80;99.90
13326;DHT22;6732;51.044;3.746;2022-10-26T05:46:46;14.80;99.90
13326;DHT22;6732;51.044;3.746;2022-10-26T05:49:12;14.80;99.90
13326;DHT22;6732;51.044;3.746;2022-10-26T05:51:38;14.80;99.90
13326;DHT22;6732;51.044;3.746;2022-10-26T05:54:04;14.80;99.90
13326;DHT22;6732;51.044;3.746;2022-10-26T05:56:35;14.80;99.90
13326;DHT22;6732;51.044;3.746;2022-10-26T05:59:03;14.80;99.90
13326;DHT22;6732;51.044;3.746;2022-10-26T06:01:34;14.80;99.90
13326;DHT22;6732;51.044;3.746;2022-10-26T06:06:45;14.80;99.90
13326;DHT22;6732;51.044;3.746;2022-10-26T06:09:13;14.80;99.90
13326;DHT22;6732;51.044;3.746;2022-10-26T06:11:39;14.80;99.90
13326;DHT22;6732;51.044;3.746;2022-10-26T06:14:07;14.80;99.90
13326;DHT22;6732;51.044;3.746;2022-10-26T06:16:39;14.80;99.90
13326;DHT22;6732;51.044;3.746;2022-10-26T06:24:14;14.80;99.90
13326;DHT22;6732;51.044;3.746;2022-10-26T06:29:43;14.80;99.90
13326;DHT22;6732;51.044;3.746;2022-10-26T06:32:15;14.80;99.90
13326;DHT22;6732;51.044;3.746;2022-10-26T06:34:46;14.80;99.90
13326;DHT22;6732;51.044;3.746;2022-10-26T06:37:13;14.80;99.90
13326;DHT22;6732;51.044;3.746;2022-10-26T06:39:43;14.80;99.90
13326;DHT22;6732;51.044;3.746;2022-10-26T06:42:11;14.80;99.90
13326;DHT22;6732;51.044;3.746;2022-10-26T06:44:37;14.80;99.90
13326;DHT22;6732;51.044;3.746;2022-10-26T06:47:06;14.80;99.90
13326;DHT22;6732;51.044;3.746;2022-10-26T06:49:54;14.80;99.90
13326;DHT22;6732;51.044;3.746;2022-10-26T06:52:34;14.80;99.90
13326;DHT22;6732;51.044;3.746;2022-10-26T06:55:02;14.80;99.90
13326;DHT22;6732;51.044;3.746;2022-10-26T06:57:36;14.80;99.90
13326;DHT22;6732;51.044;3.746;2022-10-26T07:00:06;14.80;99.90
13326;DHT22;6732;51.044;3.746;2022-10-26T07:02:33;14.80;99.90
13326;DHT22;6732;51.044;3.746;2022-10-26T07:04:59;14.80;99.90
13326;DHT22;6732;51.044;3.746;2022-10-26T07:07:28;14.80;99.90
13326;DHT22;6732;51.044;3.746;2022-10-26T07:09:54;14.80;99.90
13326;DHT22;6732;51.044;3.746;2022-10-26T07:12:20;14.90;99.90
13326;DHT22;6732;51.044;3.746;2022-10-26T07:14:47;14.80;99.90
13326;DHT22;6732;51.044;3.746;2022-10-26T07:17:13;14.80;99.90
13326;DHT22;6732;51.044;3.746;2022-10-26T07:19:39;14.90;99.90
13326;DHT22;6732;51.044;3.746;2022-10-26T07:22:09;14.90;99.90
13326;DHT22;6732;51.044;3.746;2022-10-26T07:24:35;14.90;99.90
13326;DHT22;6732;51.044;3.746;2022-10-26T07:27:01;14.90;99.90
13326;DHT22;6732;51.044;3.746;2022-10-26T07:29:27;14.90;99.90
13326;DHT22;6732;51.044;3.746;2022-10-26T07:31:53;14.90;99.90
13326;DHT22;6732;51.044;3.746;2022-10-26T07:34:19;14.90;99.90
13326;DHT22;6732;51.044;3.746;2022-10-26T07:36:45;14.90;99.90
13326;DHT22;6732;51.044;3.746;2022-10-26T07:39:11;14.90;99.90
13326;DHT22;6732;51.044;3.746;2022-10-26T07:41:38;14.90;99.90
13326;DHT22;6732;51.044;3.746;2022-10-26T07:44:04;14.90;99.90
13326;DHT22;6732;51.044;3.746;2022-10-26T07:46:33;14.90;99.90
13326;DHT22;6732;51.044;3.746;2022-10-26T07:49:02;14.90;99.90
13326;DHT22;6732;51.044;3.746;2022-10-26T07:51:30;14.90;99.90
13326;DHT22;6732;51.044;3.746;2022-10-26T07:53:56;14.90;99.90
13326;DHT22;6732;51.044;3.746;2022-10-26T07:56:22;15.00;99.90
13326;DHT22;6732;51.044;3.746;2022-10-26T07:58:48;15.00;99.90
13326;DHT22;6732;51.044;3.746;2022-10-26T08:01:16;15.00;99.90
13326;DHT22;6732;51.044;3.746;2022-10-26T08:03:42;15.00;99.90
13326;DHT22;6732;51.044;3.746;2022-10-26T08:06:08;15.00;99.90
13326;DHT22;6732;51.044;3.746;2022-10-26T08:08:35;15.00;99.90
13326;DHT22;6732;51.044;3.746;2022-10-26T08:11:02;15.10;99.90
13326;DHT22;6732;51.044;3.746;2022-10-26T08:13:28;15.10;99.90
13326;DHT22;6732;51.044;3.746;2022-10-26T08:16:02;15.10;99.90
13326;DHT22;6732;51.044;3.746;2022-10-26T08:18:29;15.10;99.90
13326;DHT22;6732;51.044;3.746;2022-10-26T08:21:04;15.10;99.90
13326;DHT22;6732;51.044;3.746;2022-10-26T08:23:31;15.20;99.90
13326;DHT22;6732;51.044;3.746;2022-10-26T08:25:58;15.20;99.90
13326;DHT22;6732;51.044;3.746;2022-10-26T08:28:25;15.20;99.90
13326;DHT22;6732;51.044;3.746;2022-10-26T08:30:51;15.20;99.90
13326;DHT22;6732;51.044;3.746;2022-10-26T08:33:17;15.20;99.90
13326;DHT22;6732;51.044;3.746;2022-10-26T08:35:43;15.20;99.90
13326;DHT22;6732;51.044;3.746;2022-10-26T08:38:09;15.30;99.90
13326;DHT22;6732;51.044;3.746;2022-10-26T08:40:37;15.30;99.90
13326;DHT22;6732;51.044;3.746;2022-10-26T08:45:58;15.30;99.90
13326;DHT22;6732;51.044;3.746;2022-10-26T08:48:29;15.30;99.90
13326;DHT22;6732;51.044;3.746;2022-10-26T08:51:11;15.30;99.90
13326;DHT22;6732;51.044;3.746;2022-10-26T08:53:42;15.40;99.90
13326;DHT22;6732;51.044;3.746;2022-10-26T09:01:46;15.40;99.90
13326;DHT22;6732;51.044;3.746;2022-10-26T09:04:12;15.40;99.90
13326;DHT22;6732;51.044;3.746;2022-10-26T09:09:20;15.40;99.90
13326;DHT22;6732;51.044;3.746;2022-10-26T09:20:41;15.50;99.90
13326;DHT22;6732;51.044;3.746;2022-10-26T09:25:57;15.60;99.90
13326;DHT22;6732;51.044;3.746;2022-10-26T09:28:27;15.60;99.90
13326;DHT22;6732;51.044;3.746;2022-10-26T09:30:57;15.60;99.90
13326;DHT22;6732;51.044;3.746;2022-10-26T09:33:24;15.60;99.90
13326;DHT22;6732;51.044;3.746;2022-10-26T09:36:01;15.60;99.90
13326;DHT22;6732;51.044;3.746;2022-10-26T09:38:37;15.70;99.90
13326;DHT22;6732;51.044;3.746;2022-10-26T09:41:08;15.70;99.90
13326;DHT22;6732;51.044;3.746;2022-10-26T09:49:43;15.80;99.90
13326;DHT22;6732;51.044;3.746;2022-10-26T09:52:14;15.80;99.90
13326;DHT22;6732;51.044;3.746;2022-10-26T09:54:40;15.80;99.90
13326;DHT22;6732;51.044;3.746;2022-10-26T09:57:07;15.90;99.90
13326;DHT22;6732;51.044;3.746;2022-10-26T09:59:38;15.90;99.90
13326;DHT22;6732;51.044;3.746;2022-10-26T10:02:34;15.90;99.90
13326;DHT22;6732;51.044;3.746;2022-10-26T10:05:00;15.90;99.90
13326;DHT22;6732;51.044;3.746;2022-10-26T10:07:26;15.90;99.90
13326;DHT22;6732;51.044;3.746;2022-10-26T10:10:21;16.00;99.90
13326;DHT22;6732;51.044;3.746;2022-10-26T10:12:49;16.00;99.90
13326;DHT22;6732;51.044;3.746;2022-10-26T10:15:22;16.00;99.90
13326;DHT22;6732;51.044;3.746;2022-10-26T10:17:52;16.10;99.90
13326;DHT22;6732;51.044;3.746;2022-10-26T10:20:29;16.10;99.90
13326;DHT22;6732;51.044;3.746;2022-10-26T10:22:57;16.10;99.90
13326;DHT22;6732;51.044;3.746;2022-10-26T10:25:38;16.10;99.90
13326;DHT22;6732;51.044;3.746;2022-10-26T10:28:34;16.10;99.90
13326;DHT22;6732;51.044;3.746;2022-10-26T10:31:09;16.20;99.90
13326;DHT22;6732;51.044;3.746;2022-10-26T10:33:42;16.20;99.90
13326;DHT22;6732;51.044;3.746;2022-10-26T10:36:20;16.20;99.90
13326;DHT22;6732;51.044;3.746;2022-10-26T10:38:48;16.30;99.90
13326;DHT22;6732;51.044;3.746;2022-10-26T10:41:24;16.30;99.90
13326;DHT22;6732;51.044;3.746;2022-10-26T10:46:28;16.30;99.90
13326;DHT22;6732;51.044;3.746;2022-10-26T10:49:01;16.40;99.90
13326;DHT22;6732;51.044;3.746;2022-10-26T10:51:38;16.40;99.90
13326;DHT22;6732;51.044;3.746;2022-10-26T10:54:14;16.40;99.90
13326;DHT22;6732;51.044;3.746;2022-10-26T10:56:51;16.40;99.90
13326;DHT22;6732;51.044;3.746;2022-10-26T11:07:22;16.50;99.90
13326;DHT22;6732;51.044;3.746;2022-10-26T11:09:52;16.50;99.90
13326;DHT22;6732;51.044;3.746;2022-10-26T11:12:29;16.60;99.90
13326;DHT22;6732;51.044;3.746;2022-10-26T11:15:00;16.60;99.90
13326;DHT22;6732;51.044;3.746;2022-10-26T11:17:44;16.60;99.90
13326;DHT22;6732;51.044;3.746;2022-10-26T11:20:15;16.60;99.90
13326;DHT22;6732;51.044;3.746;2022-10-26T11:23:00;16.70;99.90
13326;DHT22;6732;51.044;3.746;2022-10-26T11:28:54;16.70;99.90
13326;DHT22;6732;51.044;3.746;2022-10-26T11:31:51;16.70;99.90
13326;DHT22;6732;51.044;3.746;2022-10-26T11:37:13;16.80;99.90
13326;DHT22;6732;51.044;3.746;2022-10-26T11:39:44;16.80;99.90
13326;DHT22;6732;51.044;3.746;2022-10-26T11:42:32;16.80;99.90
13326;DHT22;6732;51.044;3.746;2022-10-26T11:45:27;16.90;99.90
13326;DHT22;6732;51.044;3.746;2022-10-26T11:48:27;16.90;99.90
13326;DHT22;6732;51.044;3.746;2022-10-26T11:50:54;16.90;99.90
13326;DHT22;6732;51.044;3.746;2022-10-26T11:53:38;17.00;99.90
13326;DHT22;6732;51.044;3.746;2022-10-26T11:56:26;17.00;99.90
13326;DHT22;6732;51.044;3.746;2022-10-26T11:58:55;17.00;99.90
13326;DHT22;6732;51.044;3.746;2022-10-26T12:01:22;17.10;99.90
13326;DHT22;6732;51.044;3.746;2022-10-26T12:03:51;17.10;99.90
13326;DHT22;6732;51.044;3.746;2022-10-26T12:06:24;17.10;99.90
13326;DHT22;6732;51.044;3.746;2022-10-26T12:11:37;17.10;99.90
13326;DHT22;6732;51.044;3.746;2022-10-26T12:14:23;17.20;99.90
13326;DHT22;6732;51.044;3.746;2022-10-26T12:19:39;17.20;99.90
13326;DHT22;6732;51.044;3.746;2022-10-26T12:22:10;17.20;99.90
13326;DHT22;6732;51.044;3.746;2022-10-26T12:24:42;17.30;99.90
13326;DHT22;6732;51.044;3.746;2022-10-26T12:27:47;17.30;99.90
13326;DHT22;6732;51.044;3.746;2022-10-26T12:30:32;17.30;99.90
13326;DHT22;6732;51.044;3.746;2022-10-26T12:32:59;17.30;99.90
13326;DHT22;6732;51.044;3.746;2022-10-26T12:35:45;17.30;99.90
13326;DHT22;6732;51.044;3.746;2022-10-26T12:40:47;17.40;99.90
13326;DHT22;6732;51.044;3.746;2022-10-26T12:45:43;17.40;99.90
13326;DHT22;6732;51.044;3.746;2022-10-26T12:59:41;17.60;99.90
13326;DHT22;6732;51.044;3.746;2022-10-26T13:09:45;17.70;99.90
13326;DHT22;6732;51.044;3.746;2022-10-26T13:12:12;17.70;99.90
13326;DHT22;6732;51.044;3.746;2022-10-26T13:14:53;17.70;99.90
13326;DHT22;6732;51.044;3.746;2022-10-26T13:17:31;17.70;99.90
13326;DHT22;6732;51.044;3.746;2022-10-26T13:20:04;17.80;99.90
13326;DHT22;6732;51.044;3.746;2022-10-26T13:22:31;17.80;99.90
13326;DHT22;6732;51.044;3.746;2022-10-26T13:25:00;17.80;99.90
13326;DHT22;6732;51.044;3.746;2022-10-26T13:32:38;17.80;99.90
13326;DHT22;6732;51.044;3.746;2022-10-26T13:35:12;17.80;99.90
13326;DHT22;6732;51.044;3.746;2022-10-26T13:37:46;17.90;99.90
13326;DHT22;6732;51.044;3.746;2022-10-26T13:40:18;17.90;99.90
13326;DHT22;6732;51.044;3.746;2022-10-26T13:42:48;17.90;99.90
13326;DHT22;6732;51.044;3.746;2022-10-26T13:48:27;18.00;99.90
13326;DHT22;6732;51.044;3.746;2022-10-26T13:50:59;18.00;99.90
13326;DHT22;6732;51.044;3.746;2022-10-26T13:53:50;18.00;99.90
13326;DHT22;6732;51.044;3.746;2022-10-26T13:56:21;18.10;99.90
13326;DHT22;6732;51.044;3.746;2022-10-26T13:59:02;18.10;99.90
13326;DHT22;6732;51.044;3.746;2022-10-26T14:01:29;18.10;99.90
13326;DHT22;6732;51.044;3.746;2022-10-26T14:03:56;18.10;99.90
13326;DHT22;6732;51.044;3.746;2022-10-26T14:06:32;18.10;99.90
13326;DHT22;6732;51.044;3.746;2022-10-26T14:09:04;18.10;99.90
13326;DHT22;6732;51.044;3.746;2022-10-26T14:14:20;18.10;99.90
13326;DHT22;6732;51.044;3.746;2022-10-26T14:16:49;18.10;99.90
13326;DHT22;6732;51.044;3.746;2022-10-26T14:21:46;18.20;99.90
13326;DHT22;6732;51.044;3.746;2022-10-26T14:24:22;18.20;99.90
13326;DHT22;6732;51.044;3.746;2022-10-26T14:26:49;18.20;99.90
13326;DHT22;6732;51.044;3.746;2022-10-26T14:29:23;18.20;99.90
13326;DHT22;6732;51.044;3.746;2022-10-26T14:31:50;18.20;99.90
13326;DHT22;6732;51.044;3.746;2022-10-26T14:34:17;18.20;99.90
13326;DHT22;6732;51.044;3.746;2022-10-26T14:37:00;18.30;99.90
13326;DHT22;6732;51.044;3.746;2022-10-26T14:39:40;18.30;99.90
13326;DHT22;6732;51.044;3.746;2022-10-26T14:42:33;18.30;99.90
13326;DHT22;6732;51.044;3.746;2022-10-26T14:45:01;18.30;99.90
13326;DHT22;6732;51.044;3.746;2022-10-26T14:47:32;18.30;99.90
13326;DHT22;6732;51.044;3.746;2022-10-26T14:49:59;18.30;99.90
13326;DHT22;6732;51.044;3.746;2022-10-26T14:52:31;18.30;99.90
13326;DHT22;6732;51.044;3.746;2022-10-26T14:55:00;18.40;99.90
13326;DHT22;6732;51.044;3.746;2022-10-26T14:57:38;18.40;99.90
13326;DHT22;6732;51.044;3.746;2022-10-26T15:02:41;18.40;99.90
13326;DHT22;6732;51.044;3.746;2022-10-26T15:07:49;18.40;99.90
13326;DHT22;6732;51.044;3.746;2022-10-26T15:18:40;18.40;99.90
13326;DHT22;6732;51.044;3.746;2022-10-26T15:21:26;18.40;99.90
13326;DHT22;6732;51.044;3.746;2022-10-26T15:23:54;18.40;99.90
13326;DHT22;6732;51.044;3.746;2022-10-26T15:26:22;18.40;99.90
13326;DHT22;6732;51.044;3.746;2022-10-26T15:28:48;18.40;99.90
13326;DHT22;6732;51.044;3.746;2022-10-26T15:33:41;18.50;99.90
13326;DHT22;6732;51.044;3.746;2022-10-26T15:36:12;18.40;99.90
13326;DHT22;6732;51.044;3.746;2022-10-26T15:38:40;18.40;99.90
13326;DHT22;6732;51.044;3.746;2022-10-26T15:41:18;18.50;99.90
13326;DHT22;6732;51.044;3.746;2022-10-26T15:43:49;18.50;99.90
13326;DHT22;6732;51.044;3.746;2022-10-26T15:46:16;18.50;99.90
13326;DHT22;6732;51.044;3.746;2022-10-26T15:48:46;18.50;99.90
13326;DHT22;6732;51.044;3.746;2022-10-26T15:51:14;18.50;99.90
13326;DHT22;6732;51.044;3.746;2022-10-26T15:53:40;18.50;99.90
13326;DHT22;6732;51.044;3.746;2022-10-26T15:56:14;18.40;99.90
13326;DHT22;6732;51.044;3.746;2022-10-26T15:58:40;18.40;99.90
13326;DHT22;6732;51.044;3.746;2022-10-26T16:01:07;18.40;99.90
13326;DHT22;6732;51.044;3.746;2022-10-26T16:03:33;18.40;99.90
13326;DHT22;6732;51.044;3.746;2022-10-26T16:06:00;18.40;99.90
13326;DHT22;6732;51.044;3.746;2022-10-26T16:08:29;18.40;99.90
13326;DHT22;6732;51.044;3.746;2022-10-26T16:10:56;18.40;99.90
13326;DHT22;6732;51.044;3.746;2022-10-26T16:13:22;18.40;99.90
13326;DHT22;6732;51.044;3.746;2022-10-26T16:15:48;18.40;99.90
13326;DHT22;6732;51.044;3.746;2022-10-26T16:18:14;18.40;99.90
13326;DHT22;6732;51.044;3.746;2022-10-26T16:20:40;18.40;99.90
13326;DHT22;6732;51.044;3.746;2022-10-26T16:23:06;18.40;99.90
13326;DHT22;6732;51.044;3.746;2022-10-26T16:25:38;18.40;99.90
13326;DHT22;6732;51.044;3.746;2022-10-26T16:28:05;18.40;99.90
13326;DHT22;6732;51.044;3.746;2022-10-26T16:30:31;18.40;99.90
13326;DHT22;6732;51.044;3.746;2022-10-26T16:32:57;18.40;99.90
13326;DHT22;6732;51.044;3.746;2022-10-26T16:35:23;18.40;99.90
13326;DHT22;6732;51.044;3.746;2022-10-26T16:37:49;18.30;99.90
13326;DHT22;6732;51.044;3.746;2022-10-26T16:40:15;18.30;99.90
13326;DHT22;6732;51.044;3.746;2022-10-26T16:42:41;18.30;99.90
13326;DHT22;6732;51.044;3.746;2022-10-26T16:45:10;18.30;99.90
13326;DHT22;6732;51.044;3.746;2022-10-26T16:47:36;18.30;99.90
13326;DHT22;6732;51.044;3.746;2022-10-26T16:50:08;18.30;99.90
13326;DHT22;6732;51.044;3.746;2022-10-26T16:52:36;18.30;99.90
13326;DHT22;6732;51.044;3.746;2022-10-26T16:55:03;18.20;99.90
13326;DHT22;6732;51.044;3.746;2022-10-26T16:57:30;18.20;99.90
13326;DHT22;6732;51.044;3.746;2022-10-26T16:59:56;18.20;99.90
13326;DHT22;6732;51.044;3.746;2022-10-26T17:02:22;18.20;99.90
13326;DHT22;6732;51.044;3.746;2022-10-26T17:04:49;18.20;99.90
13326;DHT22;6732;51.044;3.746;2022-10-26T17:07:15;18.20;99.90
13326;DHT22;6732;51.044;3.746;2022-10-26T17:09:41;18.20;99.90
13326;DHT22;6732;51.044;3.746;2022-10-26T17:12:07;18.20;99.90
13326;DHT22;6732;51.044;3.746;2022-10-26T17:14:36;18.20;99.90
13326;DHT22;6732;51.044;3.746;2022-10-26T17:17:03;18.20;99.90
13326;DHT22;6732;51.044;3.746;2022-10-26T17:19:29;18.20;99.90
13326;DHT22;6732;51.044;3.746;2022-10-26T17:21:55;18.20;99.90
13326;DHT22;6732;51.044;3.746;2022-10-26T17:24:20;18.20;99.90
13326;DHT22;6732;51.044;3.746;2022-10-26T17:26:46;18.20;99.90
13326;DHT22;6732;51.044;3.746;2022-10-26T17:29:12;18.10;99.90
13326;DHT22;6732;51.044;3.746;2022-10-26T17:31:39;18.10;99.90
13326;DHT22;6732;51.044;3.746;2022-10-26T17:34:05;18.10;99.90
13326;DHT22;6732;51.044;3.746;2022-10-26T17:36:31;18.10;99.90
13326;DHT22;6732;51.044;3.746;2022-10-26T17:38:57;18.10;99.90
13326;DHT22;6732;51.044;3.746;2022-10-26T17:41:23;18.10;99.90
13326;DHT22;6732;51.044;3.746;2022-10-26T17:43:50;18.10;99.90
13326;DHT22;6732;51.044;3.746;2022-10-26T17:46:18;18.00;99.90
13326;DHT22;6732;51.044;3.746;2022-10-26T17:48:45;18.00;99.90
13326;DHT22;6732;51.044;3.746;2022-10-26T17:51:16;18.00;99.90
13326;DHT22;6732;51.044;3.746;2022-10-26T17:53:45;18.00;99.90
13326;DHT22;6732;51.044;3.746;2022-10-26T17:56:18;18.00;99.90
13326;DHT22;6732;51.044;3.746;2022-10-26T17:58:49;18.00;99.90
13326;DHT22;6732;51.044;3.746;2022-10-26T18:01:15;18.00;99.90
13326;DHT22;6732;51.044;3.746;2022-10-26T18:03:41;18.00;99.90
13326;DHT22;6732;51.044;3.746;2022-10-26T18:06:08;18.00;99.90
13326;DHT22;6732;51.044;3.746;2022-10-26T18:08:37;17.90;99.90
13326;DHT22;6732;51.044;3.746;2022-10-26T18:11:05;18.00;99.90
13326;DHT22;6732;51.044;3.746;2022-10-26T18:13:32;17.90;99.90
13326;DHT22;6732;51.044;3.746;2022-10-26T18:16:06;17.90;99.90
13326;DHT22;6732;51.044;3.746;2022-10-26T18:18:34;17.90;99.90
13326;DHT22;6732;51.044;3.746;2022-10-26T18:21:02;17.90;99.90
13326;DHT22;6732;51.044;3.746;2022-10-26T18:23:28;17.90;99.90
13326;DHT22;6732;51.044;3.746;2022-10-26T18:26:09;17.90;99.90
13326;DHT22;6732;51.044;3.746;2022-10-26T18:28:35;17.90;99.90
13326;DHT22;6732;51.044;3.746;2022-10-26T18:31:06;17.90;99.90
13326;DHT22;6732;51.044;3.746;2022-10-26T18:33:33;17.90;99.90
13326;DHT22;6732;51.044;3.746;2022-10-26T18:36:04;17.90;99.90
13326;DHT22;6732;51.044;3.746;2022-10-26T18:38:30;17.90;99.90
13326;DHT22;6732;51.044;3.746;2022-10-26T18:40:57;17.90;99.90
13326;DHT22;6732;51.044;3.746;2022-10-26T18:43:24;17.90;99.90
13326;DHT22;6732;51.044;3.746;2022-10-26T18:45:50;17.90;99.90
13326;DHT22;6732;51.044;3.746;2022-10-26T18:48:17;17.90;99.90
13326;DHT22;6732;51.044;3.746;2022-10-26T18:50:44;17.90;99.90
13326;DHT22;6732;51.044;3.746;2022-10-26T18:53:10;17.90;99.90
13326;DHT22;6732;51.044;3.746;2022-10-26T18:55:41;17.90;99.90
13326;DHT22;6732;51.044;3.746;2022-10-26T18:58:08;17.80;99.90
13326;DHT22;6732;51.044;3.746;2022-10-26T19:00:40;17.90;99.90
13326;DHT22;6732;51.044;3.746;2022-10-26T19:03:08;17.80;99.90